createdAt,value
2019-05-19T00:00:17.413Z,24.55
2019-05-19T00:03:23.503Z,24.27
2019-05-19T00:06:30.133Z,23.45
2019-05-19T00:09:33.695Z,25.00
2019-05-19T00:12:37.257Z,26.07
2019-05-19T00:15:40.871Z,24.12
2019-05-19T00:18:44.498Z,25.90
2019-05-19T00:21:49.689Z,24.37
2019-05-19T00:24:56.187Z,23.45
2019-05-19T00:28:01.880Z,24.25
2019-05-19T00:31:07.034Z,25.45
2019-05-19T00:34:10.571Z,28.30
2019-05-19T00:37:14.145Z,25.97
2019-05-19T00:40:20.358Z,24.00
2019-05-19T00:43:24.095Z,23.52
2019-05-19T00:46:27.696Z,24.23
2019-05-19T00:49:40.997Z,24.10
2019-05-19T00:52:36.638Z,24.43
2019-05-19T00:55:42.383Z,23.95
2019-05-19T00:58:46.674Z,24.07
2019-05-19T01:01:53.122Z,25.52
2019-05-19T01:04:56.699Z,23.98
2019-05-19T01:08:00.253Z,24.67
2019-05-19T01:11:05.649Z,23.38
2019-05-19T01:14:09.259Z,24.15
2019-05-19T01:17:12.854Z,24.60
2019-05-19T01:20:16.698Z,23.38
2019-05-19T01:23:20.286Z,23.85
2019-05-19T01:26:23.911Z,21.95
2019-05-19T01:29:29.046Z,21.40
2019-05-19T01:32:34.118Z,23.40
2019-05-19T01:35:39.269Z,22.52
2019-05-19T01:38:42.828Z,23.30
2019-05-19T01:41:46.456Z,22.42
2019-05-19T01:44:51.617Z,21.57
2019-05-19T01:47:55.185Z,22.13
2019-05-19T01:51:01.507Z,21.70
2019-05-19T01:54:07.272Z,21.93
2019-05-19T01:57:12.165Z,21.82
2019-05-19T02:00:16.359Z,22.35
2019-05-19T02:03:22.481Z,22.02
2019-05-19T02:06:27.721Z,23.15
2019-05-19T02:09:31.326Z,21.35
2019-05-19T02:12:37.719Z,23.65
2019-05-19T02:15:41.256Z,23.07
2019-05-19T02:18:46.385Z,22.22
2019-05-19T02:21:49.913Z,24.50
2019-05-19T02:24:56.669Z,23.18
2019-05-19T02:28:02.313Z,23.12
2019-05-19T02:31:05.548Z,23.95
2019-05-19T02:34:10.611Z,23.67
2019-05-19T02:37:16.993Z,24.05
2019-05-19T02:40:21.034Z,24.32
2019-05-19T02:43:27.689Z,24.98
2019-05-19T02:46:33.276Z,24.43
2019-05-19T02:49:39.474Z,24.77
2019-05-19T02:52:45.394Z,24.60
2019-05-19T02:55:51.566Z,24.95
2019-05-19T02:58:56.195Z,24.72
2019-05-19T03:02:02.934Z,25.90
2019-05-19T03:05:10.811Z,24.47
2019-05-19T03:08:14.459Z,24.52
2019-05-19T03:11:18.030Z,24.27
2019-05-19T03:14:21.639Z,24.70
2019-05-19T03:17:27.138Z,23.98
2019-05-19T03:20:33.620Z,26.60
2019-05-19T03:23:41.370Z,25.12
2019-05-19T03:26:46.515Z,25.32
2019-05-19T03:29:51.734Z,25.55
2019-05-19T03:32:56.897Z,25.35
2019-05-19T03:36:00.480Z,25.35
2019-05-19T03:39:07.514Z,27.87
2019-05-19T03:42:14.191Z,25.77
2019-05-19T03:45:19.213Z,25.72
2019-05-19T03:48:22.759Z,25.77
2019-05-19T03:51:30.848Z,25.27
2019-05-19T03:54:31.702Z,25.37
2019-05-19T03:57:36.874Z,26.02
2019-05-19T04:00:44.477Z,26.45
2019-05-19T04:03:48.303Z,27.13
2019-05-19T04:06:51.865Z,25.75
2019-05-19T04:09:57.000Z,25.02
2019-05-19T04:16:14.635Z,24.95
2019-05-19T04:19:18.182Z,25.30
2019-05-19T04:22:23.433Z,24.98
2019-05-19T04:25:27.038Z,25.60
2019-05-19T04:28:33.659Z,25.30
2019-05-19T04:31:38.946Z,24.47
2019-05-19T04:34:49.501Z,24.67
2019-05-19T04:37:53.061Z,24.43
2019-05-19T04:40:56.800Z,24.35
2019-05-19T04:44:00.417Z,23.20
2019-05-19T04:47:14.385Z,22.98
2019-05-19T04:50:16.613Z,24.40
2019-05-19T04:53:23.532Z,25.37
2019-05-19T04:56:27.183Z,23.18
2019-05-19T04:59:30.886Z,22.95
2019-05-19T05:02:36.410Z,24.07
2019-05-19T05:05:42.854Z,23.18
2019-05-19T05:08:48.285Z,24.23
2019-05-19T05:11:52.174Z,25.08
2019-05-19T05:14:59.831Z,23.70
2019-05-19T05:18:03.649Z,23.10
2019-05-19T05:21:10.093Z,24.15
2019-05-19T05:24:13.762Z,26.65
2019-05-19T05:27:17.385Z,24.57
2019-05-19T05:30:21.033Z,24.43
2019-05-19T05:33:24.656Z,23.27
2019-05-19T05:36:28.469Z,23.15
2019-05-19T05:39:32.193Z,23.18
2019-05-19T05:42:35.917Z,22.17
2019-05-19T05:45:39.562Z,22.25
2019-05-19T05:48:43.240Z,22.25
2019-05-19T05:51:46.915Z,21.57
2019-05-19T05:54:50.622Z,22.42
2019-05-19T05:57:54.287Z,22.45
2019-05-19T06:00:57.987Z,21.77
2019-05-19T06:04:01.668Z,21.77
2019-05-19T06:07:05.367Z,21.62
2019-05-19T06:10:09.389Z,22.10
2019-05-19T06:13:15.264Z,21.52
2019-05-19T06:16:21.455Z,20.90
2019-05-19T06:19:25.377Z,22.05
2019-05-19T06:22:29.056Z,22.02
2019-05-19T06:25:32.782Z,21.12
2019-05-19T06:28:36.390Z,21.12
2019-05-19T06:31:40.047Z,19.35
2019-05-19T06:34:43.688Z,19.77
2019-05-19T06:37:47.389Z,19.35
2019-05-19T06:40:51.219Z,20.40
2019-05-19T06:43:54.848Z,20.23
2019-05-19T06:46:58.517Z,20.95
2019-05-19T06:50:02.411Z,19.42
2019-05-19T06:53:14.132Z,19.92
2019-05-19T06:56:15.842Z,19.70
2019-05-19T06:59:16.827Z,18.77
2019-05-19T07:02:20.695Z,20.35
2019-05-19T07:05:24.505Z,19.20
2019-05-19T07:08:28.211Z,19.15
2019-05-19T07:11:31.882Z,18.37
2019-05-19T07:14:35.556Z,18.55
2019-05-19T07:17:39.279Z,17.77
2019-05-19T07:20:45.346Z,18.70
2019-05-19T07:23:49.013Z,18.42
2019-05-19T07:26:52.680Z,18.23
2019-05-19T07:29:56.303Z,18.57
2019-05-19T07:33:00.258Z,17.80
2019-05-19T07:36:03.890Z,17.67
2019-05-19T07:39:08.193Z,17.65
2019-05-19T07:42:11.870Z,16.23
2019-05-19T07:45:15.783Z,16.15
2019-05-19T07:48:19.507Z,15.65
2019-05-19T07:51:23.179Z,17.10
2019-05-19T07:54:26.850Z,16.65
2019-05-19T07:57:30.529Z,16.25
2019-05-19T08:00:34.160Z,16.65
2019-05-19T08:03:39.532Z,15.58
2019-05-19T08:06:43.292Z,16.17
2019-05-19T08:09:46.969Z,15.72
2019-05-19T08:12:50.717Z,15.53
2019-05-19T08:15:54.393Z,15.80
2019-05-19T08:18:58.032Z,16.05
2019-05-19T08:22:01.691Z,17.60
2019-05-19T08:25:08.609Z,16.77
2019-05-19T08:28:13.951Z,16.32
2019-05-19T08:31:17.640Z,15.55
2019-05-19T08:34:21.374Z,15.25
2019-05-19T08:37:24.998Z,15.18
2019-05-19T08:40:28.646Z,15.15
2019-05-19T08:43:32.349Z,15.93
2019-05-19T08:46:36.382Z,15.38
2019-05-19T08:49:42.919Z,15.43
2019-05-19T08:52:46.719Z,16.50
2019-05-19T08:55:50.384Z,14.70
2019-05-19T08:58:55.615Z,15.18
2019-05-19T09:02:00.959Z,15.00
2019-05-19T09:05:06.295Z,14.70
2019-05-19T09:08:10.012Z,14.47
2019-05-19T09:11:13.672Z,13.25
2019-05-19T09:14:17.299Z,13.30
2019-05-19T09:17:20.960Z,14.83
2019-05-19T09:20:24.602Z,13.60
2019-05-19T09:23:28.306Z,13.50
2019-05-19T09:26:31.934Z,13.50
2019-05-19T09:29:35.646Z,13.70
2019-05-19T09:32:39.320Z,14.58
2019-05-19T09:35:43.057Z,14.90
2019-05-19T09:38:46.814Z,13.75
2019-05-19T09:41:50.647Z,14.60
2019-05-19T09:44:54.347Z,13.30
2019-05-19T09:47:57.967Z,12.98
2019-05-19T09:51:01.613Z,13.53
2019-05-19T09:54:05.264Z,13.30
2019-05-19T09:57:08.924Z,12.93
2019-05-19T10:00:12.885Z,11.43
2019-05-19T10:03:19.536Z,11.75
2019-05-19T10:06:22.033Z,11.63
2019-05-19T10:09:47.503Z,11.93
2019-05-19T10:12:51.181Z,11.75
2019-05-19T10:15:54.867Z,11.30
2019-05-19T10:18:58.508Z,11.28
2019-05-19T10:22:02.180Z,10.90
2019-05-19T10:25:20.955Z,10.95
2019-05-19T10:28:13.474Z,10.50
2019-05-19T10:31:17.113Z,9.75
2019-05-19T10:34:20.886Z,10.18
2019-05-19T10:37:24.506Z,10.70
2019-05-19T10:40:28.393Z,9.35
2019-05-19T10:43:32.110Z,9.35
2019-05-19T10:46:35.753Z,8.88
2019-05-19T10:49:39.392Z,9.45
2019-05-19T10:52:43.149Z,9.50
2019-05-19T10:55:46.772Z,9.25
2019-05-19T10:58:50.518Z,10.58
2019-05-19T11:01:54.150Z,9.25
2019-05-19T11:04:57.832Z,8.90
2019-05-19T11:08:01.459Z,8.88
2019-05-19T11:11:05.141Z,9.13
2019-05-19T11:14:08.855Z,9.53
2019-05-19T11:17:12.526Z,9.63
2019-05-19T11:20:16.267Z,8.85
2019-05-19T11:23:19.981Z,9.23
2019-05-19T11:26:23.696Z,8.85
2019-05-19T11:29:27.394Z,8.30
2019-05-19T11:32:31.149Z,8.15
2019-05-19T11:35:34.840Z,8.00
2019-05-19T11:38:38.514Z,8.15
2019-05-19T11:41:42.219Z,8.20
2019-05-19T11:44:45.879Z,7.60
2019-05-19T11:47:49.513Z,7.28
2019-05-19T11:50:53.222Z,7.70
2019-05-19T11:53:56.892Z,7.55
2019-05-19T11:57:00.554Z,8.03
2019-05-19T12:00:05.999Z,7.87
2019-05-19T12:03:09.733Z,8.25
2019-05-19T12:06:13.419Z,7.60
2019-05-19T12:09:17.054Z,6.90
2019-05-19T12:12:26.498Z,7.70
2019-05-19T12:15:31.391Z,7.70
2019-05-19T12:18:34.974Z,7.47
2019-05-19T12:21:38.618Z,7.45
2019-05-19T12:24:42.310Z,8.10
2019-05-19T12:27:46.412Z,8.05
2019-05-19T12:30:50.080Z,7.72
2019-05-19T12:33:53.774Z,7.80
2019-05-19T12:36:57.548Z,8.18
2019-05-19T12:40:02.346Z,8.48
2019-05-19T12:43:07.523Z,7.75
2019-05-19T12:46:16.468Z,7.85
2019-05-19T12:49:18.153Z,8.38
2019-05-19T12:52:21.854Z,8.35
2019-05-19T12:55:25.518Z,7.45
2019-05-19T12:58:29.173Z,7.67
2019-05-19T13:01:32.888Z,7.40
2019-05-19T13:04:36.538Z,8.33
2019-05-19T13:07:40.179Z,8.30
2019-05-19T13:10:43.902Z,7.78
2019-05-19T13:13:47.555Z,7.78
2019-05-19T13:16:51.205Z,8.30
2019-05-19T13:19:54.921Z,8.08
2019-05-19T13:22:59.693Z,6.92
2019-05-19T13:26:03.465Z,7.92
2019-05-19T13:29:09.578Z,7.20
2019-05-19T13:32:14.164Z,7.33
2019-05-19T13:35:17.932Z,6.85
2019-05-19T13:38:21.687Z,6.95
2019-05-19T13:41:25.317Z,6.53
2019-05-19T13:44:29.872Z,7.05
2019-05-19T13:47:33.686Z,6.35
2019-05-19T13:50:37.385Z,7.00
2019-05-19T13:53:41.038Z,7.75
2019-05-19T13:56:44.691Z,6.25
2019-05-19T13:59:48.415Z,6.20
2019-05-19T14:02:52.045Z,6.35
2019-05-19T14:05:55.719Z,6.30
2019-05-19T14:08:59.352Z,6.08
2019-05-19T14:12:02.984Z,6.05
2019-05-19T14:15:08.040Z,5.92
2019-05-19T14:18:11.706Z,6.28
2019-05-19T14:21:15.327Z,6.45
2019-05-19T14:24:19.215Z,6.50
2019-05-19T14:27:30.610Z,6.70
2019-05-19T14:30:28.267Z,6.70
2019-05-19T14:33:31.938Z,7.15
2019-05-19T14:36:35.585Z,6.72
2019-05-19T14:39:40.996Z,7.45
2019-05-19T14:42:46.293Z,6.55
2019-05-19T14:45:49.945Z,6.78
2019-05-19T14:48:53.600Z,7.37
2019-05-19T14:51:57.217Z,6.17
2019-05-19T14:55:00.864Z,6.62
2019-05-19T14:58:04.482Z,6.45
2019-05-19T15:01:08.150Z,6.58
2019-05-19T15:04:11.749Z,6.30
2019-05-19T15:07:15.432Z,5.70
2019-05-19T15:10:20.036Z,6.53
2019-05-19T15:13:23.722Z,6.40
2019-05-19T15:16:27.382Z,6.20
2019-05-19T15:19:31.019Z,6.10
2019-05-19T15:22:34.714Z,5.62
2019-05-19T15:25:38.370Z,5.40
2019-05-19T15:28:41.994Z,6.87
2019-05-19T15:31:48.867Z,5.70
2019-05-19T15:34:52.513Z,5.97
2019-05-19T15:37:56.124Z,5.75
2019-05-19T15:40:59.765Z,6.03
2019-05-19T15:44:03.504Z,5.75
2019-05-19T15:47:07.190Z,5.47
2019-05-19T15:50:11.256Z,5.30
2019-05-19T15:53:14.952Z,5.42
2019-05-19T15:56:18.617Z,5.65
2019-05-19T15:59:22.307Z,5.72
2019-05-19T16:02:25.939Z,6.53
2019-05-19T16:05:29.625Z,6.12
2019-05-19T16:08:33.289Z,5.92
2019-05-19T16:11:36.969Z,5.97
2019-05-19T16:14:40.786Z,6.17
2019-05-19T16:17:44.536Z,6.60
2019-05-19T16:20:48.185Z,6.03
2019-05-19T16:23:51.956Z,6.28
2019-05-19T16:26:55.665Z,6.20
2019-05-19T16:29:59.370Z,6.00
2019-05-19T16:33:03.023Z,6.33
2019-05-19T16:36:08.026Z,6.35
2019-05-19T16:39:11.767Z,5.95
2019-05-19T16:42:15.374Z,5.97
2019-05-19T16:45:19.591Z,6.40
2019-05-19T16:48:23.548Z,5.70
2019-05-19T16:51:27.307Z,5.87
2019-05-19T16:54:47.699Z,5.75
2019-05-19T16:57:51.364Z,6.60
2019-05-19T17:00:54.994Z,6.15
2019-05-19T17:03:58.813Z,6.28
2019-05-19T17:07:03.060Z,6.28
2019-05-19T17:10:09.222Z,6.03
2019-05-19T17:13:12.870Z,7.83
2019-05-19T17:16:16.469Z,6.40
2019-05-19T17:19:20.125Z,6.90
2019-05-19T17:22:23.776Z,6.05
2019-05-19T17:25:27.511Z,5.78
2019-05-19T17:28:31.155Z,5.83
2019-05-19T17:31:34.770Z,5.62
2019-05-19T17:34:38.451Z,5.75
2019-05-19T17:37:42.032Z,5.70
2019-05-19T17:40:45.686Z,5.67
2019-05-19T17:43:49.302Z,5.83
2019-05-19T17:46:53.001Z,5.58
2019-05-19T17:49:56.596Z,5.50
2019-05-19T17:53:00.431Z,6.50
2019-05-19T17:56:04.497Z,6.83
2019-05-19T17:59:16.165Z,6.53
2019-05-19T18:02:13.614Z,5.65
2019-05-19T18:05:17.334Z,5.55
2019-05-19T18:08:20.959Z,6.20
2019-05-19T18:11:24.612Z,5.53
2019-05-19T18:14:28.270Z,6.10
2019-05-19T18:17:31.943Z,5.78
2019-05-19T18:20:35.610Z,5.72
2019-05-19T18:23:39.244Z,5.55
2019-05-19T18:26:42.873Z,6.60
2019-05-19T18:29:46.525Z,5.85
2019-05-19T18:32:50.187Z,5.45
2019-05-19T18:35:53.838Z,6.28
2019-05-19T18:38:57.497Z,5.92
2019-05-19T18:42:01.111Z,5.85
2019-05-19T18:45:06.012Z,6.22
2019-05-19T18:48:09.744Z,5.70
2019-05-19T18:51:13.358Z,6.03
2019-05-19T18:54:17.022Z,5.72
2019-05-19T18:57:20.652Z,6.67
2019-05-19T19:00:35.317Z,6.97
2019-05-19T19:03:39.022Z,6.80
2019-05-19T19:06:42.741Z,7.05
2019-05-19T19:09:46.466Z,7.22
2019-05-19T19:12:51.743Z,6.80
2019-05-19T19:15:58.026Z,7.22
2019-05-19T19:19:01.716Z,7.45
2019-05-19T19:22:07.859Z,6.78
2019-05-19T19:25:12.476Z,5.95
2019-05-19T19:28:16.227Z,6.33
2019-05-19T19:31:19.911Z,6.45
2019-05-19T19:34:23.592Z,65.52
2019-05-19T19:37:27.297Z,23.90
2019-05-19T19:40:31.839Z,21.73
2019-05-19T19:43:35.465Z,81.47
2019-05-19T19:46:39.134Z,45.10
2019-05-19T19:49:42.804Z,32.17
2019-05-19T19:52:46.435Z,40.38
2019-05-19T19:55:50.203Z,12.55
2019-05-19T19:58:54.767Z,10.43
2019-05-19T20:01:58.451Z,9.88
2019-05-19T20:05:02.129Z,9.23
2019-05-19T20:08:06.841Z,9.28
2019-05-19T20:11:10.457Z,8.68
2019-05-19T20:14:14.182Z,8.93
2019-05-19T20:17:17.806Z,8.35
2019-05-19T20:20:24.106Z,8.98
2019-05-19T20:23:26.849Z,8.68
2019-05-19T20:26:30.526Z,8.68
2019-05-19T20:29:34.178Z,7.92
2019-05-19T20:32:37.848Z,7.58
2019-05-19T20:35:44.304Z,7.28
2019-05-19T20:38:49.577Z,7.58
2019-05-19T20:41:55.116Z,7.62
2019-05-19T20:45:00.290Z,7.67
2019-05-19T20:48:10.574Z,8.88
2019-05-19T20:51:15.780Z,8.38
2019-05-19T20:54:19.443Z,8.63
2019-05-19T20:57:23.084Z,8.20
2019-05-19T21:00:28.694Z,7.85
2019-05-19T21:03:32.298Z,8.00
2019-05-19T21:06:35.962Z,8.65
2019-05-19T21:09:39.617Z,8.65
2019-05-19T21:12:46.150Z,8.88
2019-05-19T21:15:51.473Z,33.85
2019-05-19T21:18:55.175Z,12.35
2019-05-19T21:22:01.188Z,9.65
2019-05-19T21:25:06.762Z,8.95
2019-05-19T21:28:10.408Z,9.33
2019-05-19T21:31:14.106Z,9.75
2019-05-19T21:34:17.752Z,9.75
2019-05-19T21:37:21.406Z,9.90
2019-05-19T21:40:25.047Z,9.05
2019-05-19T21:43:28.701Z,10.50
2019-05-19T21:46:32.349Z,10.88
2019-05-19T21:49:36.009Z,10.93
2019-05-19T21:52:43.354Z,10.18
2019-05-19T21:55:46.964Z,10.25
2019-05-19T21:58:50.690Z,10.25
2019-05-19T22:01:54.627Z,10.50
2019-05-19T22:05:01.410Z,11.35
2019-05-19T22:08:08.152Z,11.48
2019-05-19T22:11:11.801Z,10.85
2019-05-19T22:14:15.429Z,11.22
2019-05-19T22:17:19.114Z,12.07
2019-05-19T22:20:22.774Z,11.90
2019-05-19T22:23:26.447Z,12.45
2019-05-19T22:26:31.763Z,11.45
2019-05-19T22:29:35.403Z,12.43
2019-05-19T22:32:39.047Z,12.20
2019-05-19T22:35:42.690Z,13.10
2019-05-19T22:38:46.426Z,12.63
2019-05-19T22:41:50.172Z,13.25
2019-05-19T22:44:53.886Z,12.75
2019-05-19T22:47:57.600Z,12.18
2019-05-19T22:51:01.315Z,11.65
2019-05-19T22:54:05.041Z,11.05
2019-05-19T22:57:08.692Z,10.98
2019-05-19T23:00:13.869Z,11.12
2019-05-19T23:03:17.540Z,11.15
2019-05-19T23:06:21.229Z,11.57
2019-05-19T23:09:24.958Z,11.35
2019-05-19T23:12:28.600Z,11.75
2019-05-19T23:15:34.803Z,12.13
2019-05-19T23:18:38.895Z,11.88
2019-05-19T23:21:44.085Z,12.20
2019-05-19T23:24:49.198Z,12.10
2019-05-19T23:27:54.450Z,11.48
2019-05-19T23:30:58.101Z,11.78
2019-05-19T23:34:03.811Z,11.95
2019-05-19T23:37:16.053Z,12.33
2019-05-19T23:46:25.373Z,12.85
2019-05-19T23:49:30.911Z,11.83
2019-05-19T23:52:37.255Z,12.05
2019-05-19T23:55:43.901Z,12.10
2019-05-19T23:58:47.568Z,12.55
